Time;durP1;ratioP1;P1;durP2;ratioP2;P2;SDS_P1;SDS_P2;PMS_P1;PMS_P2;Temp;Humidity;BMP_temperature;BMP_pressure;BME280_temperature;BME280_humidity;BME280_pressure;Samples;Min_cycle;Max_cycle;Signal;HPM_P1;HPM_P2
2024/02/16 00:01:13;;;;;;;4.85;2.83;;;;;;;;;;5056574;28;20057;-58
2024/02/16 00:03:39;;;;;;;4.05;2.28;;;;;;;;;;5056566;28;20074;-57
2024/02/16 00:06:05;;;;;;;3.20;2.40;;;;;;;;;;5056810;28;20025;-57
2024/02/16 00:08:31;;;;;;;3.92;2.15;;;;;;;;;;5057349;28;20029;-58
2024/02/16 00:10:57;;;;;;;5.03;2.67;;;;;;;;;;5057244;28;20021;-57
2024/02/16 00:13:23;;;;;;;5.40;2.92;;;;;;;;;;5056518;28;20400;-57
2024/02/16 00:15:49;;;;;;;4.95;2.58;;;;;;;;;;5056222;28;20498;-58
2024/02/16 00:18:14;;;;;;;3.70;2.60;;;;;;;;;;5056572;28;20036;-57
2024/02/16 00:20:40;;;;;;;2.95;2.10;;;;;;;;;;5055871;28;20017;-58
2024/02/16 00:23:06;;;;;;;3.72;2.15;;;;;;;;;;5056187;28;20052;-58
2024/02/16 00:25:32;;;;;;;3.92;2.22;;;;;;;;;;5056150;28;20473;-58
2024/02/16 00:27:59;;;;;;;5.90;2.72;;;;;;;;;;5056808;28;20348;-57
2024/02/16 00:30:27;;;;;;;3.97;2.60;;;;;;;;;;5055352;28;20474;-58
2024/02/16 00:32:53;;;;;;;5.65;2.05;;;;;;;;;;5056070;28;20033;-53
2024/02/16 00:35:19;;;;;;;3.40;2.40;;;;;;;;;;5056036;28;20067;-58
2024/02/16 00:37:45;;;;;;;4.50;2.55;;;;;;;;;;5056086;28;20079;-58
2024/02/16 00:40:12;;;;;;;5.32;2.70;;;;;;;;;;5055959;28;20059;-58
2024/02/16 00:42:38;;;;;;;3.15;2.47;;;;;;;;;;5055979;28;20029;-57
2024/02/16 00:45:04;;;;;;;4.22;2.45;;;;;;;;;;5055700;28;20443;-58
2024/02/16 00:47:30;;;;;;;3.58;2.22;;;;;;;;;;5055878;28;20040;-58
2024/02/16 00:49:57;;;;;;;3.58;2.25;;;;;;;;;;5056365;28;20071;-58
2024/02/16 00:52:23;;;;;;;2.80;1.92;;;;;;;;;;5055736;28;20081;-58
2024/02/16 00:54:49;;;;;;;3.85;2.13;;;;;;;;;;5055861;28;20037;-55
2024/02/16 00:57:16;;;;;;;3.22;2.20;;;;;;;;;;5055679;28;20088;-57
2024/02/16 00:59:43;;;;;;;3.63;2.50;;;;;;;;;;5055239;28;20055;-57
2024/02/16 01:02:10;;;;;;;3.72;2.05;;;;;;;;;;5056044;28;20033;-57
2024/02/16 01:04:36;;;;;;;2.88;1.73;;;;;;;;;;5055473;28;20025;-57
2024/02/16 01:07:03;;;;;;;3.42;1.92;;;;;;;;;;5055661;28;20029;-57
2024/02/16 01:09:28;;;;;;;3.35;2.08;;;;;;;;;;5055999;28;20098;-57
2024/02/16 01:11:55;;;;;;;3.10;2.20;;;;;;;;;;5056141;28;20024;-58
2024/02/16 01:14:21;;;;;;;3.63;2.17;;;;;;;;;;5054985;28;20474;-58
2024/02/16 01:16:46;;;;;;;3.50;1.65;;;;;;;;;;5055808;28;20052;-57
2024/02/16 01:19:12;;;;;;;4.50;2.47;;;;;;;;;;5055845;28;20033;-57
2024/02/16 01:21:39;;;;;;;3.40;1.70;;;;;;;;;;5055083;28;20388;-58
2024/02/16 01:24:05;;;;;;;4.47;2.17;;;;;;;;;;5055415;28;20033;-58
2024/02/16 01:26:32;;;;;;;2.85;1.75;;;;;;;;;;5055290;28;20056;-58
2024/02/16 01:28:58;;;;;;;3.40;2.25;;;;;;;;;;5055658;28;20025;-58
2024/02/16 01:31:24;;;;;;;3.78;1.83;;;;;;;;;;5055323;28;20079;-57
2024/02/16 01:33:50;;;;;;;4.90;1.60;;;;;;;;;;5054983;28;20056;-58
2024/02/16 01:36:16;;;;;;;2.47;1.65;;;;;;;;;;5055088;28;20059;-57
2024/02/16 01:38:42;;;;;;;2.67;1.58;;;;;;;;;;5055672;28;20111;-58
2024/02/16 01:41:08;;;;;;;6.75;2.33;;;;;;;;;;5054794;28;20051;-57
2024/02/16 01:43:34;;;;;;;2.63;1.77;;;;;;;;;;5053900;28;20039;-57
2024/02/16 01:46:00;;;;;;;3.30;2.05;;;;;;;;;;5054352;28;20033;-58
2024/02/16 01:48:27;;;;;;;3.97;2.28;;;;;;;;;;5055205;28;20025;-57
2024/02/16 01:50:53;;;;;;;4.38;2.20;;;;;;;;;;5055063;28;20419;-58
2024/02/16 01:53:19;;;;;;;4.38;1.95;;;;;;;;;;5054863;28;20029;-58
2024/02/16 01:55:46;;;;;;;3.28;2.08;;;;;;;;;;5054451;28;20053;-58
2024/02/16 01:58:12;;;;;;;4.05;2.05;;;;;;;;;;5055120;28;20064;-58
2024/02/16 02:00:38;;;;;;;3.15;2.17;;;;;;;;;;5054642;28;20454;-58
2024/02/16 02:03:04;;;;;;;5.10;2.15;;;;;;;;;;5054873;28;20094;-57
2024/02/16 02:05:32;;;;;;;3.38;2.28;;;;;;;;;;5053263;28;20068;-57
2024/02/16 02:07:58;;;;;;;3.72;2.33;;;;;;;;;;5054640;28;20371;-57
2024/02/16 02:10:24;;;;;;;4.18;2.40;;;;;;;;;;5054164;28;20025;-57
2024/02/16 02:12:50;;;;;;;3.60;2.65;;;;;;;;;;5054240;28;20039;-57
2024/02/16 02:15:16;;;;;;;3.13;2.15;;;;;;;;;;5054675;28;20032;-58
2024/02/16 02:17:42;;;;;;;3.38;2.05;;;;;;;;;;5054156;28;20112;-58
2024/02/16 02:20:11;;;;;;;3.22;1.90;;;;;;;;;;5054064;28;20096;-57
2024/02/16 02:22:38;;;;;;;4.75;2.22;;;;;;;;;;5054005;28;20431;-57
2024/02/16 02:25:04;;;;;;;2.92;2.13;;;;;;;;;;5053993;28;20032;-58
2024/02/16 02:27:31;;;;;;;3.03;2.17;;;;;;;;;;5053902;28;20028;-58
2024/02/16 02:29:58;;;;;;;2.90;2.00;;;;;;;;;;5054705;28;20454;-58
2024/02/16 02:32:23;;;;;;;2.65;1.73;;;;;;;;;;5053581;28;20083;-55
2024/02/16 02:34:49;;;;;;;4.90;2.33;;;;;;;;;;5054333;28;20033;-58
2024/02/16 02:37:15;;;;;;;3.30;2.15;;;;;;;;;;5053743;28;20029;-58
2024/02/16 02:39:41;;;;;;;3.78;2.25;;;;;;;;;;5053888;28;20025;-58
2024/02/16 02:42:08;;;;;;;3.70;2.33;;;;;;;;;;5053762;28;20032;-58
2024/02/16 02:44:34;;;;;;;3.13;1.70;;;;;;;;;;5054256;28;20029;-58
2024/02/16 02:47:00;;;;;;;6.38;2.50;;;;;;;;;;5053924;28;20037;-57
2024/02/16 02:49:26;;;;;;;3.95;2.55;;;;;;;;;;5054575;28;20052;-57
2024/02/16 02:51:52;;;;;;;4.25;2.20;;;;;;;;;;5053924;28;20377;-58
2024/02/16 02:54:18;;;;;;;3.45;2.30;;;;;;;;;;5053484;28;20025;-58
2024/02/16 02:56:44;;;;;;;3.92;2.45;;;;;;;;;;5053169;28;20136;-58
2024/02/16 02:59:10;;;;;;;3.85;2.42;;;;;;;;;;5053934;28;20036;-57
2024/02/16 03:01:37;;;;;;;2.97;2.08;;;;;;;;;;5053591;28;20123;-58
2024/02/16 03:04:03;;;;;;;4.20;2.80;;;;;;;;;;5054132;28;20398;-57
2024/02/16 03:06:29;;;;;;;5.97;3.08;;;;;;;;;;5053522;28;20036;-58
2024/02/16 03:08:55;;;;;;;4.22;2.17;;;;;;;;;;5053580;28;20025;-58
2024/02/16 03:11:21;;;;;;;3.30;2.40;;;;;;;;;;5053557;28;20060;-58
2024/02/16 03:13:47;;;;;;;5.72;2.25;;;;;;;;;;5054321;28;20025;-58
2024/02/16 03:16:14;;;;;;;4.47;2.55;;;;;;;;;;5053101;28;20044;-58
2024/02/16 03:18:40;;;;;;;2.90;2.22;;;;;;;;;;5054015;28;20032;-58
2024/02/16 03:21:08;;;;;;;3.72;2.70;;;;;;;;;;5053260;28;20025;-58
2024/02/16 03:23:34;;;;;;;3.10;2.03;;;;;;;;;;5053400;28;20021;-58
2024/02/16 03:26:00;;;;;;;6.47;2.15;;;;;;;;;;5053816;28;20439;-58
2024/02/16 03:28:26;;;;;;;3.72;2.40;;;;;;;;;;5053983;28;20060;-58
2024/02/16 03:30:52;;;;;;;3.80;2.33;;;;;;;;;;5053628;28;20021;-58
2024/02/16 03:33:18;;;;;;;3.97;2.42;;;;;;;;;;5053042;28;20482;-58
2024/02/16 03:35:44;;;;;;;8.95;2.50;;;;;;;;;;5053286;28;20032;-57
2024/02/16 03:38:10;;;;;;;3.65;2.65;;;;;;;;;;5053341;28;20076;-55
2024/02/16 03:40:36;;;;;;;5.97;2.60;;;;;;;;;;5053234;28;20018;-53
2024/02/16 03:43:02;;;;;;;6.95;2.50;;;;;;;;;;5053960;28;20074;-58
2024/02/16 03:45:28;;;;;;;6.22;2.83;;;;;;;;;;5053139;28;20044;-56
2024/02/16 03:47:54;;;;;;;3.70;2.42;;;;;;;;;;5052908;28;20025;-57
2024/02/16 03:50:21;;;;;;;3.50;2.50;;;;;;;;;;5053176;28;20025;-56
2024/02/16 03:52:47;;;;;;;3.80;2.40;;;;;;;;;;5053966;28;20032;-56
2024/02/16 03:55:13;;;;;;;5.68;2.90;;;;;;;;;;5053131;28;20409;-57
2024/02/16 03:57:40;;;;;;;3.83;2.80;;;;;;;;;;5053700;28;20128;-58
2024/02/16 04:00:07;;;;;;;4.28;2.45;;;;;;;;;;5053574;28;20033;-58
2024/02/16 04:02:33;;;;;;;3.70;2.47;;;;;;;;;;5052965;28;20039;-58
2024/02/16 04:04:59;;;;;;;5.68;3.00;;;;;;;;;;5052677;28;20036;-57
2024/02/16 04:07:24;;;;;;;5.28;3.38;;;;;;;;;;5056502;28;20017;-57
2024/02/16 04:09:50;;;;;;;5.80;3.22;;;;;;;;;;5056976;28;20032;-58
2024/02/16 04:12:16;;;;;;;6.88;2.97;;;;;;;;;;5057117;28;20029;-57
2024/02/16 04:14:43;;;;;;;4.55;3.08;;;;;;;;;;5056677;28;20029;-55
2024/02/16 04:17:09;;;;;;;3.47;3.05;;;;;;;;;;5056433;28;20036;-58
2024/02/16 04:19:37;;;;;;;3.85;2.85;;;;;;;;;;5056734;28;20478;-57
2024/02/16 04:22:03;;;;;;;3.92;2.67;;;;;;;;;;5056193;28;20390;-58
2024/02/16 04:24:29;;;;;;;4.78;3.33;;;;;;;;;;5056254;28;20079;-58
2024/02/16 04:26:55;;;;;;;4.47;3.13;;;;;;;;;;5056387;28;20040;-58
2024/02/16 04:29:21;;;;;;;4.45;3.42;;;;;;;;;;5056229;28;20108;-58
2024/02/16 04:31:47;;;;;;;3.92;2.60;;;;;;;;;;5056326;28;20024;-58
2024/02/16 04:34:14;;;;;;;4.13;2.92;;;;;;;;;;5056097;28;20037;-57
2024/02/16 04:36:40;;;;;;;4.10;3.00;;;;;;;;;;5056061;28;20102;-57
2024/02/16 04:39:06;;;;;;;4.03;3.00;;;;;;;;;;5056125;28;20458;-58
2024/02/16 04:41:31;;;;;;;6.75;3.67;;;;;;;;;;5055974;28;20035;-57
2024/02/16 04:43:58;;;;;;;3.72;2.92;;;;;;;;;;5056302;28;20383;-57
2024/02/16 04:46:24;;;;;;;5.50;3.13;;;;;;;;;;5056327;28;20037;-57
2024/02/16 04:48:53;;;;;;;5.43;3.83;;;;;;;;;;5056138;28;20028;-57
2024/02/16 04:51:18;;;;;;;6.57;3.63;;;;;;;;;;5056133;28;20110;-58
2024/02/16 04:53:44;;;;;;;5.53;3.92;;;;;;;;;;5055766;28;20057;-58
2024/02/16 04:56:10;;;;;;;4.82;3.30;;;;;;;;;;5055876;28;20406;-57
2024/02/16 04:58:41;;;;;;;3.90;3.35;;;;;;;;;;5055991;28;20024;-57
2024/02/16 05:01:06;;;;;;;4.10;3.45;;;;;;;;;;5056243;28;20063;-57
2024/02/16 05:03:32;;;;;;;3.65;2.95;;;;;;;;;;5056152;28;20351;-58
2024/02/16 05:05:58;;;;;;;3.97;3.22;;;;;;;;;;5055276;28;20037;-55
2024/02/16 05:08:24;;;;;;;4.78;3.38;;;;;;;;;;5056196;28;20355;-56
2024/02/16 05:10:50;;;;;;;4.65;3.22;;;;;;;;;;5055500;28;20029;-57
2024/02/16 05:13:17;;;;;;;4.30;2.97;;;;;;;;;;5055496;28;20151;-55
2024/02/16 05:15:43;;;;;;;4.57;2.88;;;;;;;;;;5055748;28;20429;-58
2024/02/16 05:18:12;;;;;;;4.63;2.85;;;;;;;;;;5055913;28;20035;-57
2024/02/16 05:20:38;;;;;;;3.88;2.78;;;;;;;;;;5055781;28;20043;-57
2024/02/16 05:23:04;;;;;;;5.15;2.80;;;;;;;;;;5055182;28;20025;-58
2024/02/16 05:25:30;;;;;;;6.97;3.60;;;;;;;;;;5055475;28;20037;-57
2024/02/16 05:27:56;;;;;;;4.68;2.95;;;;;;;;;;5055599;28;20108;-57
2024/02/16 05:30:22;;;;;;;5.30;3.20;;;;;;;;;;5055573;28;20025;-57
2024/02/16 05:32:48;;;;;;;3.95;2.40;;;;;;;;;;5054837;28;20116;-57
2024/02/16 05:35:16;;;;;;;4.78;2.47;;;;;;;;;;5055041;28;20026;-56
2024/02/16 05:37:49;;;;;;;4.05;2.83;;;;;;;;;;5054925;28;20091;-57
2024/02/16 05:40:23;;;;;;;3.67;3.10;;;;;;;;;;5055300;28;20032;-57
2024/02/16 05:42:49;;;;;;;4.68;3.30;;;;;;;;;;5055510;28;20025;-56
2024/02/16 05:45:15;;;;;;;6.40;3.70;;;;;;;;;;5054502;28;20528;-58
2024/02/16 05:47:43;;;;;;;7.05;3.20;;;;;;;;;;5055143;28;20029;-57
2024/02/16 05:50:09;;;;;;;4.43;3.38;;;;;;;;;;5055217;28;20024;-58
2024/02/16 05:52:35;;;;;;;4.78;3.10;;;;;;;;;;5054947;28;20055;-58
2024/02/16 05:55:01;;;;;;;4.32;2.80;;;;;;;;;;5055683;28;20454;-56
2024/02/16 05:57:27;;;;;;;5.38;3.85;;;;;;;;;;5054927;28;20045;-58
2024/02/16 05:59:52;;;;;;;4.13;2.63;;;;;;;;;;5054637;28;20032;-57
2024/02/16 06:02:19;;;;;;;3.72;2.92;;;;;;;;;;5054181;28;20024;-58
2024/02/16 06:04:44;;;;;;;4.57;3.00;;;;;;;;;;5054504;28;20111;-57
2024/02/16 06:07:11;;;;;;;5.05;3.17;;;;;;;;;;5054456;28;20060;-57
2024/02/16 06:09:37;;;;;;;5.28;3.40;;;;;;;;;;5055014;28;20044;-58
2024/02/16 06:12:04;;;;;;;4.53;3.17;;;;;;;;;;5054570;28;20025;-56
2024/02/16 06:14:30;;;;;;;4.30;3.22;;;;;;;;;;5054916;28;20363;-58
2024/02/16 06:16:56;;;;;;;5.88;3.10;;;;;;;;;;5054312;28;20028;-58
2024/02/16 06:19:22;;;;;;;6.35;3.30;;;;;;;;;;5054335;28;20024;-57
2024/02/16 06:21:48;;;;;;;4.38;2.83;;;;;;;;;;5054238;28;20086;-57
2024/02/16 06:24:14;;;;;;;5.28;3.38;;;;;;;;;;5054201;28;20089;-57
2024/02/16 06:26:40;;;;;;;4.57;3.10;;;;;;;;;;5054475;28;20451;-58
2024/02/16 06:29:06;;;;;;;3.63;2.72;;;;;;;;;;5054278;28;20048;-58
2024/02/16 06:31:32;;;;;;;4.07;2.78;;;;;;;;;;5053791;28;20033;-56
2024/02/16 06:33:58;;;;;;;4.82;3.17;;;;;;;;;;5054486;28;20036;-58
2024/02/16 06:36:24;;;;;;;7.25;3.10;;;;;;;;;;5054042;28;20025;-55
2024/02/16 06:38:51;;;;;;;4.28;3.35;;;;;;;;;;5054271;28;20470;-57
2024/02/16 06:41:17;;;;;;;3.92;2.65;;;;;;;;;;5054379;28;20052;-58
2024/02/16 06:43:43;;;;;;;4.22;3.30;;;;;;;;;;5053875;28;20021;-58
2024/02/16 06:46:10;;;;;;;4.90;2.75;;;;;;;;;;5053682;28;20033;-57
2024/02/16 06:48:36;;;;;;;4.72;2.90;;;;;;;;;;5054019;28;20068;-56
2024/02/16 06:51:01;;;;;;;3.42;2.45;;;;;;;;;;5054233;28;20029;-57
2024/02/16 06:53:27;;;;;;;3.67;2.90;;;;;;;;;;5053740;28;20029;-57
2024/02/16 06:55:54;;;;;;;4.30;3.08;;;;;;;;;;5053546;28;20044;-58
2024/02/16 06:58:20;;;;;;;3.55;2.63;;;;;;;;;;5053672;28;20459;-56
2024/02/16 07:00:46;;;;;;;4.25;2.83;;;;;;;;;;5053567;28;20027;-57
2024/02/16 07:03:13;;;;;;;3.13;2.28;;;;;;;;;;5053671;28;20451;-57
2024/02/16 07:05:40;;;;;;;3.80;2.55;;;;;;;;;;5053499;28;20078;-58
2024/02/16 07:08:07;;;;;;;3.50;2.30;;;;;;;;;;5053858;28;20029;-58
2024/02/16 07:10:33;;;;;;;4.00;2.67;;;;;;;;;;5053375;28;20029;-58
2024/02/16 07:12:59;;;;;;;4.13;2.65;;;;;;;;;;5053295;28;20040;-57
2024/02/16 07:15:26;;;;;;;4.63;2.58;;;;;;;;;;5052992;28;20028;-57
2024/02/16 07:17:52;;;;;;;4.28;2.42;;;;;;;;;;5054083;28;20037;-58
2024/02/16 07:20:18;;;;;;;5.57;2.60;;;;;;;;;;5053706;28;20489;-58
2024/02/16 07:22:47;;;;;;;4.05;2.67;;;;;;;;;;5053431;28;20099;-57
2024/02/16 07:25:13;;;;;;;5.20;2.90;;;;;;;;;;5053909;28;20033;-57
2024/02/16 07:27:41;;;;;;;4.10;2.85;;;;;;;;;;5053415;28;20132;-58
2024/02/16 07:30:07;;;;;;;5.07;3.03;;;;;;;;;;5053355;28;20032;-58
2024/02/16 07:32:33;;;;;;;4.80;2.60;;;;;;;;;;5053615;28;20032;-57
2024/02/16 07:35:00;;;;;;;3.90;2.70;;;;;;;;;;5053844;28;20028;-58
2024/02/16 07:37:26;;;;;;;3.72;2.90;;;;;;;;;;5053416;28;20421;-57
2024/02/16 07:39:52;;;;;;;4.93;3.30;;;;;;;;;;5054111;28;20025;-56
2024/02/16 07:42:18;;;;;;;4.55;3.17;;;;;;;;;;5056930;28;20119;-58
2024/02/16 07:44:44;;;;;;;4.63;3.00;;;;;;;;;;5057133;28;20025;-58
2024/02/16 07:47:12;;;;;;;3.92;3.08;;;;;;;;;;5057285;28;20075;-56
2024/02/16 07:49:39;;;;;;;5.78;3.30;;;;;;;;;;5057159;28;20463;-57
2024/02/16 07:52:05;;;;;;;5.43;3.35;;;;;;;;;;5057414;28;20039;-58
2024/02/16 07:54:31;;;;;;;3.60;2.75;;;;;;;;;;5056974;28;20099;-57
2024/02/16 07:56:59;;;;;;;3.45;2.63;;;;;;;;;;5057002;28;20363;-58
2024/02/16 07:59:25;;;;;;;4.18;2.90;;;;;;;;;;5056882;28;20024;-55
2024/02/16 08:01:51;;;;;;;3.97;2.88;;;;;;;;;;5056796;28;20406;-57
2024/02/16 08:04:17;;;;;;;3.95;2.67;;;;;;;;;;5057124;28;20474;-58
2024/02/16 08:06:43;;;;;;;4.88;3.05;;;;;;;;;;5056175;28;20025;-57
2024/02/16 08:09:09;;;;;;;4.63;3.20;;;;;;;;;;5057035;28;20029;-58
2024/02/16 08:11:35;;;;;;;3.78;2.75;;;;;;;;;;5056373;28;20044;-57
2024/02/16 08:14:01;;;;;;;6.13;3.30;;;;;;;;;;5056853;28;20021;-58
2024/02/16 08:16:27;;;;;;;5.53;3.10;;;;;;;;;;5056557;28;20371;-56
2024/02/16 08:18:54;;;;;;;4.90;3.42;;;;;;;;;;5056435;28;20025;-57
2024/02/16 08:21:20;;;;;;;6.55;3.40;;;;;;;;;;5056752;28;20071;-55
2024/02/16 08:23:47;;;;;;;4.32;3.35;;;;;;;;;;5057267;28;20107;-58
2024/02/16 08:26:13;;;;;;;3.92;3.13;;;;;;;;;;5056891;28;20041;-57
2024/02/16 08:28:39;;;;;;;4.20;3.15;;;;;;;;;;5056377;28;20056;-58
2024/02/16 08:31:06;;;;;;;4.88;3.40;;;;;;;;;;5056375;28;20032;-56
2024/02/16 08:33:36;;;;;;;4.70;3.17;;;;;;;;;;5056561;28;20070;-57
2024/02/16 08:36:02;;;;;;;6.45;3.08;;;;;;;;;;5057288;28;20068;-56
2024/02/16 08:38:28;;;;;;;4.00;2.30;;;;;;;;;;5056711;28;20052;-56
2024/02/16 08:40:54;;;;;;;5.40;2.45;;;;;;;;;;5056010;28;20413;-57
2024/02/16 08:43:20;;;;;;;4.25;2.90;;;;;;;;;;5056341;28;20053;-56
2024/02/16 08:45:46;;;;;;;5.75;2.63;;;;;;;;;;5055960;28;20459;-57
2024/02/16 08:48:12;;;;;;;5.55;2.97;;;;;;;;;;5056801;28;20079;-58
2024/02/16 08:50:38;;;;;;;3.35;2.30;;;;;;;;;;5055854;28;20021;-57
2024/02/16 08:53:04;;;;;;;3.67;2.53;;;;;;;;;;5055131;28;20470;-57
2024/02/16 08:55:31;;;;;;;3.60;2.40;;;;;;;;;;5055520;28;20021;-58
2024/02/16 08:57:57;;;;;;;5.03;2.47;;;;;;;;;;5055799;28;20021;-58
2024/02/16 09:00:26;;;;;;;4.03;2.15;;;;;;;;;;5056304;28;20033;-58
2024/02/16 09:02:53;;;;;;;2.55;1.63;;;;;;;;;;5055938;28;20463;-58
2024/02/16 09:05:19;;;;;;;5.03;2.75;;;;;;;;;;5055875;28;20398;-58
2024/02/16 09:07:47;;;;;;;2.70;1.77;;;;;;;;;;5056155;28;20075;-57
2024/02/16 09:10:14;;;;;;;4.38;1.98;;;;;;;;;;5055517;28;20031;-58
2024/02/16 09:12:40;;;;;;;3.38;2.30;;;;;;;;;;5055487;28;20538;-57
2024/02/16 09:15:06;;;;;;;3.45;1.75;;;;;;;;;;5055925;28;20056;-57
2024/02/16 09:17:32;;;;;;;2.90;1.58;;;;;;;;;;5055451;28;20131;-58
2024/02/16 09:19:58;;;;;;;3.70;2.28;;;;;;;;;;5056292;28;20471;-58
2024/02/16 09:22:24;;;;;;;2.95;1.70;;;;;;;;;;5055233;28;20025;-58
2024/02/16 09:24:50;;;;;;;3.28;1.50;;;;;;;;;;5055798;28;20090;-58
2024/02/16 09:27:16;;;;;;;3.35;1.05;;;;;;;;;;5055774;28;20033;-58
2024/02/16 09:29:42;;;;;;;5.28;1.17;;;;;;;;;;5055037;28;20447;-58
2024/02/16 09:32:09;;;;;;;3.92;1.58;;;;;;;;;;5055533;28;20036;-58
2024/02/16 09:34:35;;;;;;;2.97;1.23;;;;;;;;;;5055079;28;20345;-57
2024/02/16 09:37:01;;;;;;;3.00;1.58;;;;;;;;;;5055660;28;20040;-58
2024/02/16 09:39:28;;;;;;;1.77;1.15;;;;;;;;;;5055587;28;20029;-58
2024/02/16 09:41:54;;;;;;;2.00;1.05;;;;;;;;;;5054915;28;20031;-58
2024/02/16 09:44:21;;;;;;;3.17;1.60;;;;;;;;;;5054426;28;20489;-58
2024/02/16 09:46:47;;;;;;;1.85;0.95;;;;;;;;;;5054692;28;20033;-58
2024/02/16 09:49:13;;;;;;;2.25;1.10;;;;;;;;;;5055100;28;20363;-57
2024/02/16 09:51:39;;;;;;;1.67;0.82;;;;;;;;;;5054704;28;20033;-58
2024/02/16 09:54:06;;;;;;;1.58;0.90;;;;;;;;;;5055037;28;20078;-57
2024/02/16 09:56:33;;;;;;;3.65;1.20;;;;;;;;;;5055147;28;20049;-59
2024/02/16 09:58:59;;;;;;;3.08;0.90;;;;;;;;;;5054651;28;20033;-58
2024/02/16 10:01:28;;;;;;;2.20;0.98;;;;;;;;;;5054974;28;20440;-59
2024/02/16 10:03:54;;;;;;;2.33;0.98;;;;;;;;;;5053750;28;20379;-58
2024/02/16 10:06:23;;;;;;;2.88;1.35;;;;;;;;;;5054449;28;20033;-58
2024/02/16 10:08:50;;;;;;;1.92;1.05;;;;;;;;;;5054930;28;20108;-58
2024/02/16 10:11:16;;;;;;;2.03;1.02;;;;;;;;;;5054610;28;20036;-58
2024/02/16 10:13:42;;;;;;;2.50;1.35;;;;;;;;;;5054006;28;20540;-57
2024/02/16 10:16:09;;;;;;;1.85;1.02;;;;;;;;;;5054744;28;20036;-59
2024/02/16 10:18:35;;;;;;;2.83;1.15;;;;;;;;;;5054660;28;20026;-59
2024/02/16 10:21:01;;;;;;;2.88;0.98;;;;;;;;;;5055040;28;20021;-57
2024/02/16 10:23:27;;;;;;;1.38;0.73;;;;;;;;;;5054170;28;20029;-58
2024/02/16 10:25:55;;;;;;;2.20;1.05;;;;;;;;;;5054136;28;20447;-58
2024/02/16 10:28:27;;;;;;;1.85;0.95;;;;;;;;;;5054978;28;20029;-59
2024/02/16 10:30:57;;;;;;;1.65;0.80;;;;;;;;;;5054408;28;20025;-56
2024/02/16 10:33:24;;;;;;;2.40;0.95;;;;;;;;;;5054034;28;20024;-57
2024/02/16 10:35:51;;;;;;;2.65;1.05;;;;;;;;;;5053913;28;20104;-56
2024/02/16 10:38:18;;;;;;;2.45;1.35;;;;;;;;;;5054793;28;20110;-57
2024/02/16 10:40:47;;;;;;;2.38;0.82;;;;;;;;;;5054344;28;20021;-57
2024/02/16 10:43:14;;;;;;;2.70;1.50;;;;;;;;;;5053711;28;20017;-56
2024/02/16 10:45:40;;;;;;;2.17;1.00;;;;;;;;;;5053690;28;20036;-56
2024/02/16 10:48:10;;;;;;;3.33;1.33;;;;;;;;;;5054400;28;20021;-56
2024/02/16 10:50:36;;;;;;;1.67;0.93;;;;;;;;;;5054136;28;20414;-59
2024/02/16 10:53:10;;;;;;;2.38;1.38;;;;;;;;;;5053834;28;20021;-57
2024/02/16 10:55:36;;;;;;;1.70;0.70;;;;;;;;;;5054057;28;20104;-56
2024/02/16 10:58:02;;;;;;;2.05;1.00;;;;;;;;;;5054234;28;20025;-56
2024/02/16 11:00:28;;;;;;;2.72;1.42;;;;;;;;;;5053648;28;20104;-57
2024/02/16 11:02:56;;;;;;;3.58;1.10;;;;;;;;;;5053496;28;20111;-57
2024/02/16 11:05:42;;;;;;;1.70;0.93;;;;;;;;;;5053510;28;20460;-57
2024/02/16 11:08:18;;;;;;;1.67;0.88;;;;;;;;;;5054139;28;20348;-57
2024/02/16 11:10:56;;;;;;;3.17;1.30;;;;;;;;;;5053648;28;20017;-57
2024/02/16 11:13:25;;;;;;;5.15;1.10;;;;;;;;;;5053372;28;20024;-54
2024/02/16 11:15:57;;;;;;;1.52;1.00;;;;;;;;;;5056309;28;20115;-57
2024/02/16 11:18:23;;;;;;;3.53;1.10;;;;;;;;;;5058542;28;20075;-57
2024/02/16 11:20:49;;;;;;;2.28;1.02;;;;;;;;;;5057777;28;20021;-57
2024/02/16 11:23:17;;;;;;;2.33;1.10;;;;;;;;;;5057580;28;20056;-60
2024/02/16 11:25:53;;;;;;;1.98;1.02;;;;;;;;;;5057421;28;20033;-57
2024/02/16 11:28:19;;;;;;;2.15;1.27;;;;;;;;;;5057730;28;20100;-57
2024/02/16 11:30:45;;;;;;;1.73;1.05;;;;;;;;;;5057502;28;20033;-57
2024/02/16 11:33:11;;;;;;;3.55;1.30;;;;;;;;;;5057733;28;20355;-57
2024/02/16 11:35:38;;;;;;;3.20;1.55;;;;;;;;;;5058262;28;20060;-57
2024/02/16 11:38:04;;;;;;;1.88;1.02;;;;;;;;;;5057905;28;20351;-57
2024/02/16 11:40:33;;;;;;;2.13;0.95;;;;;;;;;;5056977;28;20494;-57
2024/02/16 11:42:59;;;;;;;2.90;1.33;;;;;;;;;;5057263;28;20036;-56
2024/02/16 11:45:26;;;;;;;2.30;0.93;;;;;;;;;;5057430;28;20054;-58
2024/02/16 11:48:02;;;;;;;2.70;1.02;;;;;;;;;;5057710;28;20072;-57
2024/02/16 11:50:29;;;;;;;3.38;0.98;;;;;;;;;;5057199;28;20029;-56
2024/02/16 11:52:55;;;;;;;2.22;1.02;;;;;;;;;;5056962;28;20075;-57
2024/02/16 11:55:21;;;;;;;2.20;1.27;;;;;;;;;;5057071;28;20029;-57
2024/02/16 11:57:50;;;;;;;3.00;1.63;;;;;;;;;;5056617;28;20055;-57
2024/02/16 12:00:16;;;;;;;3.90;1.27;;;;;;;;;;5057391;28;20113;-57
2024/02/16 12:02:42;;;;;;;5.43;1.25;;;;;;;;;;5056692;28;20362;-57
2024/02/16 12:05:09;;;;;;;2.53;1.40;;;;;;;;;;5056754;28;20112;-57
2024/02/16 12:07:39;;;;;;;1.85;1.17;;;;;;;;;;5056680;28;20032;-57
2024/02/16 12:10:07;;;;;;;2.15;0.88;;;;;;;;;;5057697;28;20036;-57
2024/02/16 12:12:33;;;;;;;1.92;1.20;;;;;;;;;;5056659;28;20116;-57
2024/02/16 12:14:59;;;;;;;2.65;1.45;;;;;;;;;;5057079;28;20025;-57
2024/02/16 12:17:25;;;;;;;1.65;0.90;;;;;;;;;;5056603;28;20324;-57
2024/02/16 12:19:52;;;;;;;2.60;1.02;;;;;;;;;;5056622;28;20393;-59
2024/02/16 12:22:18;;;;;;;2.40;1.30;;;;;;;;;;5056369;28;20032;-58
2024/02/16 12:24:47;;;;;;;1.90;1.10;;;;;;;;;;5056391;28;20021;-58
2024/02/16 12:27:13;;;;;;;2.70;1.15;;;;;;;;;;5055631;28;20040;-58
2024/02/16 12:29:39;;;;;;;2.25;1.08;;;;;;;;;;5056348;28;20033;-58
2024/02/16 12:32:06;;;;;;;6.18;1.77;;;;;;;;;;5056828;28;20021;-57
2024/02/16 12:34:31;;;;;;;2.08;1.35;;;;;;;;;;5056217;28;20068;-58
2024/02/16 12:36:57;;;;;;;2.00;1.00;;;;;;;;;;5056163;28;20033;-58
2024/02/16 12:39:23;;;;;;;3.55;1.58;;;;;;;;;;5056582;28;20017;-58
2024/02/16 12:41:49;;;;;;;3.33;1.40;;;;;;;;;;5055834;28;20017;-58
2024/02/16 12:44:15;;;;;;;3.75;1.30;;;;;;;;;;5056150;28;20029;-58
2024/02/16 12:46:43;;;;;;;2.65;1.55;;;;;;;;;;5055962;28;20044;-58
2024/02/16 12:49:09;;;;;;;3.45;1.40;;;;;;;;;;5056286;28;20021;-58
2024/02/16 12:51:35;;;;;;;3.20;1.38;;;;;;;;;;5055999;28;20107;-58
2024/02/16 12:54:04;;;;;;;3.67;1.17;;;;;;;;;;5055875;28;20029;-58
2024/02/16 12:56:31;;;;;;;2.47;1.40;;;;;;;;;;5055485;28;20045;-58
2024/02/16 12:59:00;;;;;;;4.07;1.17;;;;;;;;;;5056318;28;20112;-58
2024/02/16 13:01:25;;;;;;;3.05;1.70;;;;;;;;;;5055652;28;20025;-58
2024/02/16 13:03:52;;;;;;;1.88;1.10;;;;;;;;;;5055655;28;20017;-58
2024/02/16 13:06:18;;;;;;;2.10;1.25;;;;;;;;;;5055857;28;20112;-58
2024/02/16 13:08:44;;;;;;;5.15;1.50;;;;;;;;;;5055920;28;20106;-58
2024/02/16 13:11:09;;;;;;;5.80;1.45;;;;;;;;;;5055529;28;20061;-58
2024/02/16 13:13:35;;;;;;;2.42;1.00;;;;;;;;;;5055499;28;20079;-58
2024/02/16 13:16:01;;;;;;;2.38;1.08;;;;;;;;;;5055802;28;20025;-58
2024/02/16 13:18:27;;;;;;;2.08;0.95;;;;;;;;;;5055239;28;20104;-58
2024/02/16 13:20:53;;;;;;;3.55;1.40;;;;;;;;;;5055555;28;20021;-58
2024/02/16 13:23:19;;;;;;;2.70;1.25;;;;;;;;;;5055302;28;20017;-57
2024/02/16 13:25:45;;;;;;;3.08;1.33;;;;;;;;;;5055577;28;20033;-58
2024/02/16 13:28:11;;;;;;;9.93;1.40;;;;;;;;;;5055847;28;20067;-58
2024/02/16 13:30:38;;;;;;;3.13;1.73;;;;;;;;;;5055694;28;20032;-57
2024/02/16 13:33:04;;;;;;;2.80;1.02;;;;;;;;;;5055215;28;20018;-57
2024/02/16 13:35:30;;;;;;;3.42;1.20;;;;;;;;;;5055165;28;20366;-58
2024/02/16 13:37:56;;;;;;;4.80;1.38;;;;;;;;;;5054056;28;20021;-57
2024/02/16 13:40:22;;;;;;;2.63;1.50;;;;;;;;;;5055232;28;20025;-58
2024/02/16 13:42:48;;;;;;;2.55;1.52;;;;;;;;;;5054977;28;20378;-58
2024/02/16 13:45:14;;;;;;;2.95;1.73;;;;;;;;;;5054615;28;20013;-58
2024/02/16 13:47:40;;;;;;;5.25;1.75;;;;;;;;;;5054897;28;20041;-58
2024/02/16 13:50:06;;;;;;;2.63;1.60;;;;;;;;;;5054813;28;20029;-59
2024/02/16 13:52:34;;;;;;;2.78;1.52;;;;;;;;;;5054505;28;20025;-58
2024/02/16 13:55:00;;;;;;;8.05;5.47;;;;;;;;;;5054704;28;20062;-58
2024/02/16 13:57:26;;;;;;;7.43;5.15;;;;;;;;;;5055220;28;20060;-58
2024/02/16 13:59:52;;;;;;;9.35;7.60;;;;;;;;;;5054285;28;20151;-58
2024/02/16 14:02:18;;;;;;;11.30;9.52;;;;;;;;;;5054591;28;20025;-57
2024/02/16 14:04:44;;;;;;;9.23;6.47;;;;;;;;;;5055093;28;20028;-58
2024/02/16 14:07:10;;;;;;;6.57;2.55;;;;;;;;;;5054315;28;20470;-58
2024/02/16 14:09:36;;;;;;;5.93;2.20;;;;;;;;;;5054831;28;20024;-57
2024/02/16 14:12:02;;;;;;;3.20;2.03;;;;;;;;;;5054372;28;20025;-58
2024/02/16 14:14:28;;;;;;;3.80;2.40;;;;;;;;;;5054294;28;20033;-58
2024/02/16 14:16:54;;;;;;;4.07;2.30;;;;;;;;;;5054226;28;20033;-58
2024/02/16 14:19:20;;;;;;;4.70;2.80;;;;;;;;;;5054494;28;20017;-58
2024/02/16 14:21:47;;;;;;;6.72;2.47;;;;;;;;;;5054466;28;20101;-58
2024/02/16 14:24:13;;;;;;;3.90;2.08;;;;;;;;;;5054681;28;20053;-58
2024/02/16 14:26:39;;;;;;;5.97;2.13;;;;;;;;;;5053866;28;20078;-58
2024/02/16 14:29:06;;;;;;;5.18;2.30;;;;;;;;;;5054299;28;20025;-58
2024/02/16 14:31:33;;;;;;;7.38;2.58;;;;;;;;;;5054064;28;20419;-58
2024/02/16 14:33:59;;;;;;;4.30;2.17;;;;;;;;;;5054078;28;20048;-58
2024/02/16 14:36:25;;;;;;;7.80;2.65;;;;;;;;;;5053669;28;20025;-58
2024/02/16 14:38:51;;;;;;;4.13;2.22;;;;;;;;;;5054385;28;20356;-58